Time;durP1;ratioP1;P1;durP2;ratioP2;P2;SDS_P1;SDS_P2;PMS_P1;PMS_P2;Temp;Humidity;BMP_temperature;BMP_pressure;BME280_temperature;BME280_humidity;BME280_pressure;Samples;Min_cycle;Max_cycle;Signal;HPM_P1;HPM_P2
2021/05/21 00:01:22;;;;;;;;;;;;;;;12.43;75.38;99821.13;1648826;86;21186;-89
2021/05/21 00:03:48;;;;;;;3.50;3.20;;;;;;;12.43;75.28;99823.80;1640860;86;20826;-90
2021/05/21 00:06:14;;;;;;;3.85;3.55;;;;;;;12.43;74.93;99826.97;1643077;85;21131;-87
2021/05/21 00:08:40;;;;;;;4.33;3.50;;;;;;;12.41;74.50;99823.19;1650075;85;21107;-88
2021/05/21 00:11:06;;;;;;;6.53;4.42;;;;;;;12.37;74.48;99828.63;1639480;86;21063;-89
2021/05/21 00:13:34;;;;;;;4.78;3.98;;;;;;;12.31;74.63;99822.81;1627133;86;21040;-90
2021/05/21 00:16:01;;;;;;;6.92;3.50;;;;;;;12.28;74.69;99829.91;1651296;86;21096;-88
2021/05/21 00:18:27;;;;;;;6.17;3.72;;;;;;;12.32;74.51;99831.14;1649255;86;21214;-89
2021/05/21 00:20:53;;;;;;;4.28;3.87;;;;;;;12.38;74.36;99830.81;1642530;85;21713;-87
2021/05/21 00:23:19;;;;;;;3.62;3.33;;;;;;;12.40;73.91;99830.08;1656741;84;21037;-89
2021/05/21 00:25:45;;;;;;;5.08;4.58;;;;;;;12.35;73.90;99832.56;1656325;86;21635;-90
2021/05/21 00:28:14;;;;;;;7.35;4.00;;;;;;;12.27;74.15;99836.30;1673953;84;21092;-88
2021/05/21 00:30:41;;;;;;;10.08;3.90;;;;;;;12.19;74.21;99841.36;1666480;85;21689;-89
2021/05/21 00:33:07;;;;;;;4.62;3.95;;;;;;;12.20;74.26;99840.31;1672023;85;21111;-88
2021/05/21 00:35:33;;;;;;;5.55;2.70;;;;;;;12.29;74.13;99846.78;1630558;86;21228;-89
2021/05/21 00:37:59;;;;;;;4.03;2.62;;;;;;;12.34;73.79;99843.78;1658672;86;21180;-90
2021/05/21 00:40:25;;;;;;;3.08;2.80;;;;;;;12.34;73.66;99845.61;1641645;86;21665;-89
2021/05/21 00:42:51;;;;;;;3.60;2.30;;;;;;;12.26;73.29;99852.85;1640213;87;21139;-89
2021/05/21 00:45:17;;;;;;;2.33;1.80;;;;;;;12.18;73.47;99847.72;1641823;85;21096;-90
2021/05/21 00:47:43;;;;;;;2.40;1.95;;;;;;;12.16;73.57;99844.45;1672589;85;21080;-89
2021/05/21 00:50:11;;;;;;;1.67;1.12;;;;;;;12.19;73.55;99847.23;1674645;84;21020;-90
2021/05/21 00:52:41;;;;;;;2.22;2.02;;;;;;;12.17;73.46;99851.45;1666116;84;21103;-88
2021/05/21 00:55:09;;;;;;;2.27;1.50;;;;;;;12.10;73.67;99854.64;1666374;84;21074;-89
2021/05/21 00:57:36;;;;;;;3.42;1.95;;;;;;;12.03;73.62;99853.84;1637271;86;21165;-89
2021/05/21 01:00:05;;;;;;;2.75;2.55;;;;;;;12.02;73.95;99857.03;1632378;86;21090;-89
2021/05/21 01:02:33;;;;;;;2.87;2.67;;;;;;;12.06;73.80;99857.44;1632313;87;21187;-90
2021/05/21 01:04:59;;;;;;;2.92;2.65;;;;;;;12.12;73.90;99858.45;1629810;86;21051;-89
2021/05/21 01:07:27;;;;;;;3.55;2.98;;;;;;;12.13;74.12;99862.74;1631683;86;21073;-89
2021/05/21 01:09:56;;;;;;;4.40;2.77;;;;;;;12.11;74.35;99859.47;1637828;86;21637;-90
2021/05/21 01:12:23;;;;;;;3.05;2.85;;;;;;;12.10;74.45;99864.00;1639113;86;21033;-89
2021/05/21 01:14:51;;;;;;;4.05;3.02;;;;;;;12.20;74.32;99864.36;1650662;85;21076;-90
2021/05/21 01:17:22;;;;;;;3.12;2.92;;;;;;;12.20;74.32;99864.36;1706712;82;21189;-89
2021/05/21 01:19:50;;;;;;;4.85;2.60;;;;;;;12.24;74.18;99873.63;1718147;82;21056;-89
2021/05/21 01:22:18;;;;;;;3.62;2.80;;;;;;;12.21;74.27;99867.35;1717577;82;21135;-89
2021/05/21 01:24:45;;;;;;;4.03;2.33;;;;;;;12.14;74.42;99867.88;1713009;83;21612;-89
2021/05/21 01:27:12;;;;;;;2.60;2.40;;;;;;;12.06;74.66;99866.27;1697094;83;21081;-90
2021/05/21 01:29:40;;;;;;;3.75;2.52;;;;;;;12.02;74.82;99866.91;1699347;83;21717;-90
2021/05/21 01:32:11;;;;;;;2.90;2.65;;;;;;;12.05;74.67;99870.47;1699934;83;21083;-89
2021/05/21 01:34:39;;;;;;;2.87;2.67;;;;;;;12.04;74.72;99868.33;1697571;83;21251;-88
2021/05/21 01:37:21;;;;;;;3.77;3.40;;;;;;;12.02;74.78;99868.23;1701181;84;21631;-89
2021/05/21 01:39:52;;;;;;;2.72;2.52;;;;;;;11.95;75.01;99873.58;1695205;83;21233;-89
2021/05/21 01:42:19;;;;;;;3.12;2.87;;;;;;;11.90;75.32;99881.91;1700251;83;21229;-89
2021/05/21 01:44:47;;;;;;;4.75;2.72;;;;;;;11.85;75.57;99879.33;1695528;83;22413;-91
2021/05/21 01:47:14;;;;;;;5.35;2.77;;;;;;;11.88;75.39;99882.92;1678419;83;21626;-90
2021/05/21 01:49:41;;;;;;;2.25;2.08;;;;;;;11.87;75.26;99880.45;1688057;81;21197;-89
2021/05/21 01:52:07;;;;;;;3.35;2.50;;;;;;;11.84;75.37;99884.34;1703449;80;21153;-89
2021/05/21 01:54:35;;;;;;;2.98;2.72;;;;;;;11.77;75.39;99884.05;1678340;83;21114;-89
2021/05/21 01:57:04;;;;;;;3.92;3.35;;;;;;;11.69;75.51;99887.23;1687290;83;21050;-88
2021/05/21 01:59:30;;;;;;;3.52;2.60;;;;;;;11.66;75.58;99890.34;1699106;83;21281;-88
2021/05/21 02:01:58;;;;;;;4.22;2.62;;;;;;;11.68;75.40;99885.61;1662457;83;21666;-90
2021/05/21 02:04:40;;;;;;;2.98;2.50;;;;;;;11.67;75.38;99895.97;1662602;85;21627;-89
2021/05/21 02:07:10;;;;;;;2.87;2.67;;;;;;;11.65;75.50;99899.36;1662360;85;21129;-90
2021/05/21 02:09:59;;;;;;;3.40;3.00;;;;;;;11.60;75.72;99903.67;1655990;85;21078;-89
2021/05/21 02:12:29;;;;;;;2.37;2.08;;;;;;;11.56;75.83;99899.77;1656534;85;21098;-88
2021/05/21 02:15:00;;;;;;;3.30;2.92;;;;;;;11.57;75.81;99900.09;1654795;85;21142;-89
2021/05/21 02:17:27;;;;;;;10.20;2.62;;;;;;;11.64;75.69;99902.23;1664044;85;21615;-89
2021/05/21 02:20:02;;;;;;;3.07;2.57;;;;;;;11.67;75.58;99907.16;1664976;85;22030;-90
2021/05/21 02:22:28;;;;;;;2.70;2.50;;;;;;;11.66;75.59;99908.20;1660702;85;21154;-89
2021/05/21 02:24:57;;;;;;;2.83;2.62;;;;;;;11.58;75.60;99909.20;1684138;83;21022;-88
2021/05/21 02:27:25;;;;;;;7.25;2.55;;;;;;;11.50;75.61;99908.91;1693932;83;21095;-91
2021/05/21 02:29:54;;;;;;;2.92;2.52;;;;;;;11.48;75.62;99912.30;1677759;83;21083;-89
2021/05/21 02:32:21;;;;;;;2.40;2.20;;;;;;;11.53;75.54;99914.85;1679208;83;21114;-89
2021/05/21 02:34:47;;;;;;;;;;;;;;;11.59;75.46;99922.06;1685393;83;21094;-89
2021/05/21 02:37:15;;;;;;;;;;;;;;;11.24;75.38;99868.34;1700034;83;20216;-89
2021/05/21 02:39:41;;;;;;;2.67;2.58;;;;;;;11.48;75.50;99925.64;1684547;83;20214;-88
2021/05/21 02:42:07;;;;;;;2.70;2.60;;;;;;;11.39;75.69;99929.52;1682383;83;21214;-90
2021/05/21 02:44:34;;;;;;;6.70;3.87;;;;;;;11.36;75.65;99929.11;1675393;83;21074;-89
2021/05/21 02:47:00;;;;;;;2.52;2.30;;;;;;;11.38;75.55;99935.09;1670435;84;21086;-91
2021/05/21 02:49:29;;;;;;;6.72;2.42;;;;;;;11.46;75.38;99932.21;1646987;85;21167;-88
2021/05/21 02:51:56;;;;;;;1.77;1.67;;;;;;;11.62;75.32;99936.31;1655539;84;21783;-88
2021/05/21 02:54:22;;;;;;;3.87;1.67;;;;;;;12.00;75.90;99933.07;1664282;84;21130;-88
2021/05/21 02:56:48;;;;;;;3.05;1.42;;;;;;;12.56;74.57;99935.69;1680714;84;21063;-87
2021/05/21 02:59:14;;;;;;;2.33;1.52;;;;;;;13.28;73.03;99936.88;1689935;83;21119;-88
2021/05/21 03:01:41;;;;;;;2.33;1.80;;;;;;;14.03;70.35;99922.20;1694506;83;20976;-87
2021/05/21 03:04:09;;;;;;;1.42;1.05;;;;;;;14.71;67.71;99923.97;1698478;83;21043;-88
2021/05/21 03:06:36;;;;;;;0.98;0.90;;;;;;;15.30;65.06;99924.19;1686256;83;21083;-86
2021/05/21 03:09:04;;;;;;;2.40;0.70;;;;;;;15.81;63.46;99922.50;1696338;83;21068;-90
2021/05/21 03:11:32;;;;;;;2.52;0.60;;;;;;;16.28;60.51;99923.83;1703516;83;21099;-88
2021/05/21 03:14:00;;;;;;;1.30;0.85;;;;;;;16.69;58.87;99926.83;1690375;83;21605;-87
2021/05/21 03:16:29;;;;;;;1.37;0.75;;;;;;;17.12;57.80;99931.42;1677698;85;21116;-88
2021/05/21 03:18:56;;;;;;;1.85;0.45;;;;;;;17.51;55.65;99932.92;1680022;84;21760;-88
2021/05/21 03:21:22;;;;;;;1.10;0.62;;;;;;;17.85;54.48;99936.45;1693812;84;21227;-88
2021/05/21 03:23:48;;;;;;;0.88;0.60;;;;;;;18.20;52.90;99933.20;1728653;81;21319;-86
2021/05/21 03:26:17;;;;;;;1.55;1.00;;;;;;;18.52;52.35;99935.25;1730749;82;21128;-86
2021/05/21 03:28:43;;;;;;;1.00;1.00;;;;;;;18.80;51.69;99940.47;1736075;81;21645;-86
2021/05/21 03:31:09;;;;;;;;;;;;;;;19.09;49.77;99944.30;1725458;82;21002;-85
2021/05/21 03:33:35;;;;;;;0.45;0.20;;;;;;;19.21;48.55;99942.27;1745312;80;20225;-87
2021/05/21 03:36:04;;;;;;;0.80;0.60;;;;;;;19.16;49.26;99944.91;1715864;84;21155;-87
2021/05/21 03:38:31;;;;;;;0.70;0.57;;;;;;;19.20;49.19;99943.33;1715099;81;21183;-87
2021/05/21 03:41:00;;;;;;;3.20;0.75;;;;;;;19.34;49.16;99947.77;1722572;82;21080;-85
2021/05/21 03:43:27;;;;;;;1.92;0.50;;;;;;;19.50;48.31;99950.64;1727081;81;21140;-87
2021/05/21 03:45:53;;;;;;;1.77;0.57;;;;;;;19.67;49.16;99947.81;1726950;82;21165;-88
2021/05/21 03:48:20;;;;;;;;;;;;;;;20.03;48.20;99947.55;1728931;82;21147;-88
2021/05/21 03:50:47;;;;;;;3.33;0.60;;;;;;;20.38;46.15;99950.18;1715557;82;20215;-83
2021/05/21 03:53:14;;;;;;;;;;;;;;;20.52;46.27;99947.83;1744538;82;21058;-85
2021/05/21 03:55:42;;;;;;;2.00;0.45;;;;;;;20.67;45.97;99949.28;1722071;82;20208;-85
2021/05/21 03:58:09;;;;;;;;;;;;;;;20.85;45.29;99953.94;1729762;82;21582;-86
2021/05/21 04:00:36;;;;;;;0.60;0.60;;;;;;;21.00;45.29;99958.88;1731370;82;20189;-87
2021/05/21 04:03:06;;;;;;;1.80;0.40;;;;;;;20.99;46.06;99964.01;1724125;82;21104;-87
2021/05/21 04:05:33;;;;;;;2.27;0.57;;;;;;;;;;1718249;82;21558;-86
2021/05/21 04:08:00;;;;;;;0.57;0.23;;;;;;;21.30;44.58;99964.07;1729066;82;21132;-83
2021/05/21 04:10:26;;;;;;;1.40;0.30;;;;;;;21.38;45.15;99962.20;1738518;82;21133;-85
2021/05/21 04:12:52;;;;;;;0.57;0.20;;;;;;;21.45;44.67;99968.73;1713809;82;21032;-86
2021/05/21 04:15:19;;;;;;;0.62;0.25;;;;;;;21.59;43.65;99967.68;1709592;83;21019;-86
2021/05/21 04:17:46;;;;;;;0.68;0.40;;;;;;;21.65;43.49;99972.56;1709154;83;21222;-86
2021/05/21 04:20:13;;;;;;;0.72;0.20;;;;;;;21.59;43.62;99969.03;1702459;83;21181;-87
2021/05/21 04:22:42;;;;;;;1.65;0.40;;;;;;;21.55;43.80;99965.23;1713008;83;21082;-86
2021/05/21 04:25:09;;;;;;;2.02;0.33;;;;;;;21.30;43.84;99964.62;1710144;83;22146;-85
2021/05/21 04:27:44;;;;;;;0.57;0.30;;;;;;;21.14;44.71;99972.72;1718865;83;21134;-86
2021/05/21 04:30:07;;;;;;;0.47;0.30;;;;;;;21.18;44.52;99975.16;1704123;83;21062;-86
2021/05/21 04:32:33;;;;;;;0.50;0.42;;;;;;;21.13;44.17;99983.28;1705354;83;21698;-87
2021/05/21 04:34:59;;;;;;;;;;;;;;;20.78;44.93;99978.58;1721632;83;21664;-88
2021/05/21 04:37:26;;;;;;;1.87;0.40;;;;;;;20.48;45.30;99981.38;1713364;83;20536;-85
2021/05/21 04:39:54;;;;;;;2.92;0.33;;;;;;;20.27;45.54;99985.03;1715212;83;21126;-87
2021/05/21 04:42:21;;;;;;;2.17;0.20;;;;;;;20.01;46.53;99985.69;1713039;83;21142;-86
2021/05/21 04:44:49;;;;;;;0.90;0.20;;;;;;;19.42;46.72;99932.46;1696288;83;21693;-86
2021/05/21 04:47:18;;;;;;;;;;;;;;;19.43;47.31;99984.08;1651990;85;21523;-87
2021/05/21 04:49:43;;;;;;;1.17;0.42;;;;;;;18.98;48.19;99997.91;1666253;84;20196;-85
2021/05/21 04:52:10;;;;;;;0.33;0.30;;;;;;;18.50;49.71;99998.91;1695521;83;21147;-87
2021/05/21 04:54:38;;;;;;;0.57;0.30;;;;;;;18.22;50.64;99999.31;1698231;83;21118;-87
2021/05/21 04:57:05;;;;;;;0.30;0.30;;;;;;;17.84;52.75;99974.44;1699386;83;21648;-87
2021/05/21 04:59:33;;;;;;;2.27;0.50;;;;;;;17.88;51.75;100002.56;1688424;84;21337;-87
2021/05/21 05:01:59;;;;;;;0.62;0.57;;;;;;;17.61;52.07;100008.56;1690069;83;21032;-87
2021/05/21 05:04:26;;;;;;;2.90;0.33;;;;;;;17.43;53.34;100012.27;1686025;83;21024;-85
2021/05/21 05:06:54;;;;;;;1.47;0.20;;;;;;;17.42;53.54;100013.86;1687521;83;21020;-86
2021/05/21 05:09:21;;;;;;;5.00;0.45;;;;;;;17.58;53.73;100018.47;1704522;83;21174;-87
2021/05/21 05:11:47;;;;;;;1.60;0.70;;;;;;;17.68;52.53;100021.33;1692573;83;21093;-87
2021/05/21 05:14:14;;;;;;;0.42;0.40;;;;;;;17.75;52.80;100025.23;1695957;83;21070;-86
2021/05/21 05:16:41;;;;;;;1.17;0.40;;;;;;;17.92;52.19;100024.47;1699969;82;21149;-88
2021/05/21 05:19:08;;;;;;;9.58;1.02;;;;;;;17.49;52.16;99931.81;1686230;83;21206;-89
2021/05/21 05:21:40;;;;;;;4.00;0.60;;;;;;;18.26;51.08;100022.58;1684602;83;21078;-86
2021/05/21 05:24:13;;;;;;;1.47;0.93;;;;;;;18.22;50.89;100021.44;1686414;83;21056;-87
2021/05/21 05:26:40;;;;;;;1.75;0.55;;;;;;;18.11;52.00;100019.65;1691728;84;21058;-86
2021/05/21 05:29:08;;;;;;;0.98;0.40;;;;;;;18.07;52.49;100020.66;1691138;83;21092;-87
2021/05/21 05:31:34;;;;;;;0.90;0.40;;;;;;;18.31;51.24;100022.66;1694406;83;21030;-87
2021/05/21 05:34:00;;;;;;;;;;;;;;;18.52;50.43;100031.05;1682556;83;21072;-86
2021/05/21 05:36:28;;;;;;;1.37;0.20;;;;;;;18.41;51.31;99987.72;1695415;83;20203;-86
2021/05/21 05:38:54;;;;;;;2.42;0.50;;;;;;;18.81;49.94;100028.48;1690318;83;21141;-87
2021/05/21 05:41:21;;;;;;;1.95;0.65;;;;;;;19.01;49.40;100027.13;1684052;83;21508;-87
2021/05/21 05:43:49;;;;;;;1.60;0.33;;;;;;;19.22;48.84;100031.69;1691506;83;21088;-86
2021/05/21 05:46:15;;;;;;;0.72;0.40;;;;;;;19.44;48.29;100037.08;1658668;85;21107;-87
2021/05/21 05:48:41;;;;;;;0.60;0.37;;;;;;;19.36;48.22;100036.16;1679977;84;22399;-88
2021/05/21 05:51:11;;;;;;;2.35;0.65;;;;;;;19.52;48.02;100041.20;1681896;84;21136;-86
2021/05/21 05:53:37;;;;;;;1.17;0.28;;;;;;;19.48;47.26;100038.73;1667856;85;21029;-88
2021/05/21 05:56:04;;;;;;;;;;;;;;;19.51;46.50;100040.91;1681776;84;21010;-89
2021/05/21 05:58:31;;;;;;;0.55;0.28;;;;;;;19.49;46.42;100039.00;1674623;84;20129;-88
2021/05/21 06:01:00;;;;;;;0.45;0.20;;;;;;;19.36;47.25;100034.00;1676748;84;21066;-87
2021/05/21 06:03:28;;;;;;;3.10;0.23;;;;;;;19.26;46.37;100034.16;1667589;84;21610;-85
2021/05/21 06:05:57;;;;;;;1.45;0.20;;;;;;;18.72;46.43;99938.17;1661481;85;21086;-87
2021/05/21 06:08:23;;;;;;;0.30;0.13;;;;;;;19.28;46.71;100027.16;1682167;84;21074;-87
2021/05/21 06:10:53;;;;;;;0.78;0.10;;;;;;;19.44;45.80;100031.67;1680282;84;21629;-87
2021/05/21 06:13:25;;;;;;;0.78;0.10;;;;;;;19.61;44.17;100034.81;1664922;85;21074;-87
2021/05/21 06:15:52;;;;;;;1.32;0.15;;;;;;;19.71;43.22;100035.44;1681063;85;21056;-89
2021/05/21 06:18:20;;;;;;;0.40;0.20;;;;;;;19.62;44.02;100031.83;1683795;79;21108;-88
2021/05/21 06:20:47;;;;;;;2.15;0.20;;;;;;;19.65;43.97;100031.88;1668730;84;21172;-88
2021/05/21 06:23:15;;;;;;;0.40;0.17;;;;;;;19.78;44.33;100030.13;1665719;84;21058;-87
2021/05/21 06:28:11;;;;;;;2.35;0.20;;;;;;;19.72;42.96;100029.81;1683294;85;21043;-87
2021/05/21 06:30:38;;;;;;;0.10;0.10;;;;;;;19.57;43.97;100025.55;1670143;84;21105;-86
2021/05/21 06:33:05;;;;;;;0.20;0.10;;;;;;;19.47;44.19;100034.93;1673870;84;21073;-86
2021/05/21 06:35:34;;;;;;;1.77;0.10;;;;;;;19.44;43.71;100034.91;1673767;85;21136;-83
2021/05/21 06:38:00;;;;;;;0.70;0.17;;;;;;;19.42;43.59;100037.86;1688196;84;21108;-86
2021/05/21 06:40:26;;;;;;;;;;;;;;;19.53;43.28;100033.36;1683542;85;21089;-87
2021/05/21 06:45:02;;;;;;;0.57;0.20;;;;;;;19.62;43.96;100029.12;1858819;74;22226;-88
2021/05/21 06:47:29;;;;;;;0.53;0.20;;;;;;;19.72;44.62;100026.24;1810524;77;21103;-88
2021/05/21 06:49:55;;;;;;;2.40;0.20;;;;;;;19.81;44.57;100031.50;1804807;77;21027;-87
2021/05/21 06:52:21;;;;;;;;;;;;;;;19.82;44.11;100035.30;1792841;77;21071;-88
2021/05/21 06:54:47;;;;;;;0.25;0.10;;;;;;;19.63;44.20;100035.38;1798202;78;20689;-89
2021/05/21 06:57:14;;;;;;;;;;;;;;;19.35;44.71;100039.14;1767811;78;21139;-87
2021/05/21 06:59:40;;;;;;;7.03;0.20;;;;;;;19.24;45.81;100043.06;1781771;78;20245;-89
2021/05/21 07:02:08;;;;;;;0.68;0.30;;;;;;;19.15;45.98;100041.06;1770249;78;21351;-87
2021/05/21 07:04:35;;;;;;;0.10;0.10;;;;;;;19.10;46.24;100039.12;1788439;79;21165;-87
2021/05/21 07:07:03;;;;;;;0.55;0.55;;;;;;;19.11;46.07;100046.15;1779148;79;21626;-89
2021/05/21 07:09:30;;;;;;;1.12;0.10;;;;;;;19.11;45.44;100052.09;1790388;79;21089;-89
2021/05/21 07:11:56;;;;;;;1.20;0.33;;;;;;;19.16;45.13;100054.87;1789628;78;21025;-89
2021/05/21 07:14:22;;;;;;;0.65;0.13;;;;;;;19.26;44.29;100051.73;1784499;79;21115;-87
2021/05/21 07:16:53;;;;;;;0.17;0.00;;;;;;;19.21;43.02;100052.20;1756337;80;21146;-88
2021/05/21 07:19:19;;;;;;;0.55;0.10;;;;;;;19.02;42.14;100054.41;1781262;79;21165;-88
2021/05/21 07:21:47;;;;;;;;;;;;;;;18.75;42.23;100057.81;1791764;79;21641;-88
2021/05/21 07:24:13;;;;;;;1.35;0.30;;;;;;;18.69;41.82;100064.22;1800046;79;20262;-89
2021/05/21 07:26:40;;;;;;;1.02;0.28;;;;;;;18.63;41.72;100061.17;1787352;79;21036;-89
2021/05/21 07:29:08;;;;;;;0.37;0.00;;;;;;;18.62;41.74;100058.17;1799446;78;21095;-89
2021/05/21 07:31:35;;;;;;;1.25;0.03;;;;;;;18.68;40.77;100063.41;1782333;79;21372;-90
2021/05/21 07:34:02;;;;;;;0.85;0.00;;;;;;;18.67;40.75;100069.86;1793059;79;21135;-88
2021/05/21 07:36:31;;;;;;;0.30;0.00;;;;;;;18.63;41.05;100073.32;1791267;79;21040;-90
2021/05/21 07:38:59;;;;;;;7.53;0.00;;;;;;;18.64;40.23;100074.40;1786827;78;21040;-89
2021/05/21 07:41:27;;;;;;;0.00;0.00;;;;;;;18.63;40.10;100075.48;1796368;79;21738;-87
2021/05/21 07:43:55;;;;;;;0.23;0.00;;;;;;;18.45;39.23;100081.14;1793843;79;21676;-89
2021/05/21 07:46:23;;;;;;;0.30;0.00;;;;;;;18.11;40.33;100070.89;1785640;79;21123;-89
2021/05/21 07:48:51;;;;;;;0.62;0.10;;;;;;;17.89;41.93;100065.69;1784853;79;21094;-88
2021/05/21 07:51:19;;;;;;;0.10;0.10;;;;;;;17.85;42.44;100074.48;1784427;78;21348;-88
2021/05/21 07:53:47;;;;;;;1.15;0.15;;;;;;;17.81;43.18;100069.27;1789830;79;21559;-87
2021/05/21 07:56:14;;;;;;;4.40;0.10;;;;;;;17.71;43.60;100065.33;1777316;79;21058;-85
2021/05/21 07:58:42;;;;;;;1.25;0.23;;;;;;;17.63;43.55;100064.38;1767371;80;21611;-89
2021/05/21 08:01:08;;;;;;;;;;;;;;;17.60;43.97;100065.39;1771843;79;21079;-87
2021/05/21 08:03:34;;;;;;;0.45;0.10;;;;;;;17.53;45.51;100066.06;1767858;80;20215;-88
2021/05/21 08:06:01;;;;;;;1.90;0.15;;;;;;;17.53;45.07;100074.95;1763652;80;21026;-89
2021/05/21 08:08:28;;;;;;;0.20;0.15;;;;;;;17.59;45.28;100065.90;1763742;80;22440;-89
2021/05/21 08:10:57;;;;;;;0.10;0.10;;;;;;;17.68;45.06;100068.50;1763282;80;21220;-88
2021/05/21 08:13:25;;;;;;;0.20;0.20;;;;;;;17.69;46.10;100065.30;1768957;80;21154;-89
2021/05/21 08:15:53;;;;;;;0.47;0.10;;;;;;;17.70;45.60;100069.61;1709249;82;21700;-88
2021/05/21 08:18:19;;;;;;;0.50;0.20;;;;;;;17.73;45.92;100069.67;1717658;82;21074;-88
2021/05/21 08:20:47;;;;;;;2.08;0.20;;;;;;;17.77;45.27;100068.13;1710600;82;21209;-87
2021/05/21 08:23:16;;;;;;;0.62;0.10;;;;;;;17.76;45.79;100068.63;1714268;82;21134;-89
2021/05/21 08:25:43;;;;;;;0.20;0.10;;;;;;;17.81;45.83;100066.58;1725196;82;21066;-91
2021/05/21 08:28:10;;;;;;;7.65;0.30;;;;;;;17.89;46.11;100056.77;1713830;81;21695;-90
2021/05/21 08:30:37;;;;;;;5.80;0.20;;;;;;;18.00;45.26;100065.85;1726289;82;21125;-91
2021/05/21 08:33:05;;;;;;;2.17;0.10;;;;;;;18.07;45.36;100063.82;1725032;82;21129;-91
2021/05/21 08:35:31;;;;;;;0.45;0.10;;;;;;;18.16;45.54;100067.75;1712762;81;21077;-91
2021/05/21 08:37:57;;;;;;;0.65;0.10;;;;;;;18.26;45.44;100062.50;1718009;81;21161;-88
2021/05/21 08:40:29;;;;;;;0.85;0.10;;;;;;;18.41;45.52;100065.16;1702264;81;21771;-89
2021/05/21 08:42:58;;;;;;;0.25;0.10;;;;;;;18.44;45.04;100060.09;1720918;82;21066;-88
2021/05/21 08:45:29;;;;;;;2.35;0.20;;;;;;;18.34;45.82;100059.92;1720877;82;21706;-88
2021/05/21 08:47:56;;;;;;;6.80;0.30;;;;;;;18.38;45.87;100060.25;1761272;78;21915;-89
2021/05/21 08:50:25;;;;;;;0.35;0.10;;;;;;;18.40;44.25;100064.86;1743201;80;21137;-88
2021/05/21 08:52:51;;;;;;;0.10;0.10;;;;;;;18.37;44.38;100064.84;1742042;80;21085;-88
2021/05/21 08:55:18;;;;;;;2.80;0.10;;;;;;;18.42;44.63;100068.13;1770210;80;21051;-89
2021/05/21 08:57:45;;;;;;;3.98;0.50;;;;;;;18.37;44.27;100067.53;1747036;79;21162;-90
2021/05/21 09:00:13;;;;;;;4.42;0.20;;;;;;;18.31;43.94;100067.17;1758270;80;21145;-89
2021/05/21 09:02:39;;;;;;;0.10;0.00;;;;;;;18.27;44.41;100063.31;1733264;80;21096;-86
2021/05/21 09:05:11;;;;;;;0.25;0.10;;;;;;;18.29;44.00;100072.00;1704396;83;21185;-88
2021/05/21 09:07:40;;;;;;;0.13;0.00;;;;;;;18.30;43.55;100076.32;1706145;82;22243;-89
2021/05/21 09:10:11;;;;;;;0.53;0.00;;;;;;;18.40;42.58;100075.14;1724893;81;21096;-89
2021/05/21 09:12:50;;;;;;;4.05;0.10;;;;;;;18.50;42.51;100069.08;1723126;82;21124;-90
2021/05/21 09:15:23;;;;;;;0.10;0.10;;;;;;;18.60;43.16;100065.70;1711131;83;21737;-87
2021/05/21 09:18:05;;;;;;;6.83;0.10;;;;;;;18.68;42.60;100075.56;1747956;81;21716;-89
2021/05/21 09:20:39;;;;;;;3.17;0.10;;;;;;;18.73;42.63;100086.95;1734685;82;21099;-89
2021/05/21 09:23:12;;;;;;;1.75;0.10;;;;;;;18.69;42.33;100080.42;1719778;81;21715;-89
2021/05/21 09:25:49;;;;;;;0.37;0.08;;;;;;;18.70;42.59;100091.48;1690689;82;21134;-88
2021/05/21 09:28:37;;;;;;;1.25;0.20;;;;;;;18.72;42.09;100082.60;1713589;82;21726;-89
2021/05/21 09:31:12;;;;;;;0.30;0.10;;;;;;;18.71;41.20;100085.03;1706779;82;21139;-89
2021/05/21 09:33:42;;;;;;;1.15;0.23;;;;;;;18.65;42.02;100084.69;1678922;80;21058;-88
2021/05/21 09:36:09;;;;;;;0.00;0.00;;;;;;;18.60;41.60;100081.91;1718666;81;21007;-88
2021/05/21 09:38:57;;;;;;;0.20;0.05;;;;;;;18.60;41.62;100079.20;1712584;81;21262;-88
2021/05/21 09:41:27;;;;;;;1.55;0.10;;;;;;;18.66;41.55;100078.20;1718327;81;21237;-89
2021/05/21 09:43:56;;;;;;;1.10;0.10;;;;;;;18.71;42.10;100078.28;1723509;82;21796;-89
2021/05/21 09:46:23;;;;;;;1.42;0.10;;;;;;;18.79;41.87;100077.04;1679784;82;21153;-88
2021/05/21 09:48:49;;;;;;;0.13;0.10;;;;;;;18.84;42.01;100079.31;1693983;83;21082;-88
2021/05/21 09:51:22;;;;;;;2.05;0.10;;;;;;;18.85;41.84;100076.06;1706874;82;21700;-88
2021/05/21 09:53:47;;;;;;;0.30;0.10;;;;;;;18.89;42.37;100081.79;1713761;82;21148;-89
2021/05/21 09:56:22;;;;;;;1.65;0.10;;;;;;;18.88;41.09;100075.58;1729856;82;21111;-90
2021/05/21 09:58:49;;;;;;;0.65;0.20;;;;;;;18.79;41.22;100068.94;1741820;81;21135;-88
2021/05/21 10:01:23;;;;;;;2.42;0.10;;;;;;;18.76;41.93;100072.13;1754995;80;21077;-90
2021/05/21 10:03:53;;;;;;;3.47;0.10;;;;;;;18.84;43.08;100075.80;1710523;83;21067;-88
2021/05/21 10:06:23;;;;;;;2.33;0.45;;;;;;;18.95;42.65;100075.38;1719740;82;21603;-88
2021/05/21 10:08:54;;;;;;;0.20;0.10;;;;;;;19.01;42.22;100082.50;1738511;81;21172;-88
2021/05/21 10:11:18;;;;;;;0.93;0.10;;;;;;;18.96;41.68;100077.83;1748490;80;21616;-88
2021/05/21 10:13:47;;;;;;;0.13;0.10;;;;;;;18.92;41.88;100077.25;1731531;81;21090;-90
2021/05/21 10:16:18;;;;;;;0.00;0.00;;;;;;;18.93;41.51;100070.77;1727565;81;21228;-88
2021/05/21 10:18:50;;;;;;;1.75;0.10;;;;;;;18.96;41.11;100079.19;1734481;80;21145;-87
2021/05/21 10:21:22;;;;;;;0.35;0.33;;;;;;;18.97;41.73;100075.43;1737108;81;21091;-91
2021/05/21 10:23:59;;;;;;;0.50;0.03;;;;;;;19.01;41.04;100070.35;1734173;80;21054;-89
2021/05/21 10:26:34;;;;;;;0.10;0.00;;;;;;;18.97;40.59;100071.92;1721864;81;21085;-90
2021/05/21 10:29:07;;;;;;;0.10;0.00;;;;;;;18.96;40.62;100072.44;1732368;81;21099;-88
2021/05/21 10:31:35;;;;;;;0.80;0.10;;;;;;;18.94;39.39;100067.81;1727016;82;22333;-90
2021/05/21 10:34:18;;;;;;;1.60;0.17;;;;;;;18.78;38.69;100050.58;1715289;81;21192;-91
2021/05/21 10:37:31;;;;;;;3.87;0.30;;;;;;;18.84;39.67;100065.80;1736426;81;21321;-89
2021/05/21 10:40:25;;;;;;;1.32;0.20;;;;;;;18.90;39.48;100064.53;1688526;84;21228;-90
2021/05/21 10:43:19;;;;;;;1.75;0.10;;;;;;;18.96;40.04;100054.88;1677417;84;21221;-89
2021/05/21 10:45:55;;;;;;;2.77;0.00;;;;;;;19.04;39.83;100056.32;1663375;82;21194;-88
2021/05/21 10:48:28;;;;;;;3.40;0.20;;;;;;;19.08;39.02;100057.98;1708898;82;21094;-89
2021/05/21 10:51:12;;;;;;;0.35;0.10;;;;;;;19.11;38.76;100056.95;1717405;81;21258;-90
2021/05/21 10:53:43;;;;;;;2.10;0.10;;;;;;;19.15;37.05;100054.03;1716116;81;22441;-87
2021/05/21 10:56:10;;;;;;;0.10;0.10;;;;;;;19.13;37.74;100049.41;1713206;82;21042;-89
2021/05/21 10:58:43;;;;;;;0.08;0.08;;;;;;;19.11;37.44;100046.15;1715418;81;21167;-88
2021/05/21 11:01:15;;;;;;;0.42;0.10;;;;;;;19.17;37.32;100042.98;1729079;80;21084;-90
2021/05/21 11:04:05;;;;;;;2.67;0.20;;;;;;;19.23;37.08;100046.01;1679912;82;21068;-90
2021/05/21 11:06:42;;;;;;;5.95;0.10;;;;;;;19.28;37.65;100050.67;1689741;82;21757;-90
2021/05/21 11:09:14;;;;;;;0.35;0.10;;;;;;;19.08;37.32;100041.27;1698148;82;21117;-88
2021/05/21 11:11:59;;;;;;;0.20;0.05;;;;;;;19.05;37.63;100050.67;1727105;81;21058;-89
2021/05/21 11:14:34;;;;;;;0.10;0.03;;;;;;;18.98;38.13;100050.04;1688646;83;21228;-89
2021/05/21 11:17:15;;;;;;;0.90;0.10;;;;;;;18.92;38.10;100048.89;1708711;81;21211;-90
2021/05/21 11:19:55;;;;;;;2.08;0.10;;;;;;;18.91;37.86;100050.78;1721075;82;21100;-90
2021/05/21 11:22:31;;;;;;;0.15;0.10;;;;;;;18.94;38.43;100048.11;1722455;82;21267;-88
2021/05/21 11:25:13;;;;;;;0.98;0.10;;;;;;;19.00;38.13;100045.74;1717563;81;21126;-87
2021/05/21 11:27:40;;;;;;;1.30;0.10;;;;;;;19.04;36.89;100048.22;1706028;82;21169;-87
2021/05/21 11:30:10;;;;;;;1.17;0.10;;;;;;;19.03;37.24;100047.95;1705793;82;21155;-89
2021/05/21 11:32:40;;;;;;;0.20;0.10;;;;;;;19.03;37.70;100047.41;1707780;82;21108;-88
2021/05/21 11:35:12;;;;;;;0.10;0.03;;;;;;;19.01;37.43;100048.74;1723199;81;21108;-86
2021/05/21 11:37:41;;;;;;;1.20;0.10;;;;;;;19.00;37.56;100049.80;1731771;81;21107;-90
2021/05/21 11:40:09;;;;;;;0.40;0.35;;;;;;;19.08;37.06;100052.59;1734264;81;22308;-89
2021/05/21 11:42:37;;;;;;;0.30;0.05;;;;;;;19.15;37.14;100059.43;1748484;80;21134;-89
2021/05/21 11:45:06;;;;;;;0.10;0.05;;;;;;;19.18;36.14;100052.73;1743014;78;21484;-88
2021/05/21 11:47:39;;;;;;;0.20;0.10;;;;;;;19.16;36.38;100052.97;1746327;78;21248;-89